createdAt,value
2022-10-26T00:01:05.506Z,96.79
2022-10-26T00:03:34.847Z,96.67
2022-10-26T00:06:08.534Z,96.73
2022-10-26T00:08:37.062Z,96.61
2022-10-26T00:11:07.680Z,96.84
2022-10-26T00:13:37.054Z,96.69
2022-10-26T00:16:10.177Z,96.79
2022-10-26T00:18:38.744Z,96.42
2022-10-26T00:21:07.926Z,96.88
2022-10-26T00:23:36.186Z,96.55
2022-10-26T00:26:06.735Z,97.45
2022-10-26T00:28:34.927Z,96.91
2022-10-26T00:31:03.745Z,96.36
2022-10-26T00:33:32.427Z,97.21
2022-10-26T00:36:00.709Z,97.31
2022-10-26T00:38:28.888Z,96.78
2022-10-26T00:43:38.934Z,97.09
2022-10-26T00:46:11.792Z,97.24
2022-10-26T00:48:44.195Z,97.41
2022-10-26T00:51:16.707Z,97.20
2022-10-26T00:53:45.660Z,97.54
2022-10-26T00:56:13.927Z,97.28
2022-10-26T00:58:44.118Z,96.95
2022-10-26T01:01:12.547Z,97.66
2022-10-26T01:03:40.572Z,96.83
2022-10-26T01:06:10.166Z,97.18
2022-10-26T01:08:38.509Z,97.10
2022-10-26T01:11:07.175Z,97.56
2022-10-26T01:13:36.902Z,97.74
2022-10-26T01:16:23.694Z,97.31
2022-10-26T01:19:00.565Z,98.01
2022-10-26T01:21:52.851Z,97.67
2022-10-26T01:24:34.536Z,97.51
2022-10-26T01:27:21.527Z,97.51
2022-10-26T01:32:56.699Z,97.24
2022-10-26T01:35:32.328Z,98.43
2022-10-26T01:38:07.989Z,97.56
2022-10-26T01:40:39.176Z,98.04
2022-10-26T01:43:11.171Z,97.62
2022-10-26T01:45:43.349Z,97.64
2022-10-26T01:48:15.123Z,97.75
2022-10-26T01:50:47.665Z,97.77
2022-10-26T01:53:17.108Z,97.88
2022-10-26T01:55:49.282Z,98.22
2022-10-26T01:58:51.157Z,98.57
2022-10-26T02:01:37.525Z,98.11
2022-10-26T02:04:17.407Z,98.03
2022-10-26T02:06:54.175Z,98.10
2022-10-26T02:09:30.487Z,97.80
2022-10-26T02:11:59.761Z,97.60
2022-10-26T02:14:36.282Z,97.65
2022-10-26T02:17:09.191Z,98.31
2022-10-26T02:19:43.842Z,98.66
2022-10-26T02:22:17.956Z,98.17
2022-10-26T02:24:48.294Z,98.05
2022-10-26T02:27:21.610Z,98.35
2022-10-26T02:29:53.951Z,98.65
2022-10-26T02:32:25.721Z,98.60
2022-10-26T02:34:58.498Z,98.45
2022-10-26T02:37:29.938Z,98.21
2022-10-26T02:39:59.250Z,98.26
2022-10-26T02:42:28.972Z,97.96
2022-10-26T02:45:01.242Z,97.69
2022-10-26T02:47:29.517Z,97.85
2022-10-26T02:49:59.415Z,97.67
2022-10-26T02:52:34.243Z,97.51
2022-10-26T02:55:06.087Z,97.12
2022-10-26T02:57:39.705Z,96.81
2022-10-26T03:00:08.686Z,96.57
2022-10-26T03:02:36.958Z,97.33
2022-10-26T03:05:14.236Z,96.58
2022-10-26T03:07:42.987Z,96.17
2022-10-26T03:10:12.046Z,95.96
2022-10-26T03:12:40.212Z,96.12
2022-10-26T03:15:09.068Z,95.79
2022-10-26T03:17:37.183Z,95.14
2022-10-26T03:20:06.332Z,95.39
2022-10-26T03:22:35.595Z,95.43
2022-10-26T03:25:03.814Z,95.29
2022-10-26T03:27:31.709Z,95.49
2022-10-26T03:29:59.678Z,95.48
2022-10-26T03:32:27.625Z,95.46
2022-10-26T03:34:55.565Z,94.99
2022-10-26T03:37:23.632Z,94.65
2022-10-26T03:39:52.950Z,94.69
2022-10-26T03:42:21.015Z,94.61
2022-10-26T03:44:48.954Z,95.13
2022-10-26T03:47:17.132Z,94.00
2022-10-26T03:49:45.376Z,93.91
2022-10-26T03:52:13.263Z,94.65
2022-10-26T03:54:41.188Z,94.52
2022-10-26T03:57:10.509Z,93.98
2022-10-26T03:59:38.611Z,93.81
2022-10-26T04:02:06.621Z,93.71
2022-10-26T04:04:34.625Z,93.72
2022-10-26T04:07:02.567Z,94.90
2022-10-26T04:09:30.449Z,95.08
2022-10-26T04:11:58.319Z,94.45
2022-10-26T04:14:27.573Z,95.27
2022-10-26T04:16:55.546Z,95.81
2022-10-26T04:19:23.528Z,95.25
2022-10-26T04:21:52.220Z,96.42
2022-10-26T04:24:20.203Z,96.67
2022-10-26T04:26:48.173Z,96.53
2022-10-26T04:29:16.253Z,95.48
2022-10-26T04:31:46.215Z,96.04
2022-10-26T04:34:14.143Z,96.34
2022-10-26T04:36:42.111Z,95.13
2022-10-26T04:39:10.020Z,94.69
2022-10-26T04:41:37.909Z,95.22
2022-10-26T04:44:05.944Z,95.91
2022-10-26T04:46:33.904Z,96.08
2022-10-26T04:49:03.253Z,96.31
2022-10-26T04:51:31.139Z,96.65
2022-10-26T04:53:59.270Z,96.60
2022-10-26T04:56:27.261Z,96.50
2022-10-26T04:58:55.609Z,96.35
2022-10-26T05:01:23.881Z,96.69
2022-10-26T05:03:52.316Z,96.64
2022-10-26T05:06:22.108Z,97.11
2022-10-26T05:08:50.698Z,97.23
2022-10-26T05:11:18.590Z,96.75
2022-10-26T05:13:48.226Z,97.15
2022-10-26T05:16:16.977Z,97.11
2022-10-26T05:18:44.942Z,97.61
2022-10-26T05:21:19.212Z,97.50
2022-10-26T05:23:53.888Z,97.49
2022-10-26T05:26:21.981Z,96.63
2022-10-26T05:28:49.975Z,97.29
2022-10-26T05:31:18.040Z,97.34
2022-10-26T05:33:49.271Z,97.06
2022-10-26T05:36:17.587Z,96.64
2022-10-26T05:38:45.859Z,96.62
2022-10-26T05:41:15.253Z,95.96
2022-10-26T05:43:43.233Z,96.53
2022-10-26T05:46:11.127Z,95.99
2022-10-26T05:48:39.051Z,95.04
2022-10-26T05:51:07.362Z,95.35
2022-10-26T05:53:35.210Z,95.47
2022-10-26T05:56:06.050Z,95.52
2022-10-26T05:58:39.311Z,95.44
2022-10-26T06:01:16.758Z,95.72
2022-10-26T06:04:02.263Z,95.32
2022-10-26T06:06:35.410Z,96.28
2022-10-26T06:09:03.958Z,96.13
2022-10-26T06:11:32.502Z,95.24
2022-10-26T06:14:03.459Z,94.60
2022-10-26T06:16:39.420Z,94.86
2022-10-26T06:19:17.717Z,94.40
2022-10-26T06:22:02.746Z,94.30
2022-10-26T06:24:38.979Z,94.32
2022-10-26T06:27:19.697Z,95.02
2022-10-26T06:29:58.437Z,95.56
2022-10-26T06:32:26.584Z,94.64
2022-10-26T06:35:06.959Z,94.52
2022-10-26T06:37:37.205Z,94.90
2022-10-26T06:40:07.423Z,94.94
2022-10-26T06:42:35.816Z,95.25
2022-10-26T06:45:06.424Z,95.17
2022-10-26T06:47:41.737Z,94.93
2022-10-26T06:50:23.101Z,94.70
2022-10-26T06:53:03.859Z,94.33
2022-10-26T06:55:40.528Z,94.86
2022-10-26T06:58:11.490Z,94.48
2022-10-26T07:00:41.702Z,94.29
2022-10-26T07:03:09.608Z,94.16
2022-10-26T07:05:37.587Z,94.95
2022-10-26T07:08:06.462Z,95.19
2022-10-26T07:10:36.288Z,94.94
2022-10-26T07:13:04.154Z,94.91
2022-10-26T07:15:32.111Z,95.40
2022-10-26T07:18:01.762Z,94.70
2022-10-26T07:20:29.760Z,94.19
2022-10-26T07:22:58.502Z,94.03
2022-10-26T07:25:27.230Z,95.02
2022-10-26T07:27:59.056Z,94.20
2022-10-26T07:30:27.393Z,94.54
2022-10-26T07:33:01.445Z,94.73
2022-10-26T07:35:30.116Z,94.42
2022-10-26T07:37:59.026Z,94.04
2022-10-26T07:40:28.108Z,93.73
2022-10-26T07:42:58.773Z,93.89
2022-10-26T07:45:27.388Z,93.51
2022-10-26T07:47:55.385Z,93.54
2022-10-26T07:50:25.822Z,93.80
2022-10-26T07:52:54.435Z,93.42
2022-10-26T07:55:22.508Z,93.12
2022-10-26T07:57:53.795Z,93.27
2022-10-26T08:00:23.324Z,93.51
2022-10-26T08:02:51.383Z,93.12
2022-10-26T08:05:19.455Z,92.74
2022-10-26T08:07:49.195Z,92.25
2022-10-26T08:10:17.890Z,92.46
2022-10-26T08:12:46.043Z,92.29
2022-10-26T08:15:14.000Z,92.23
2022-10-26T08:17:41.978Z,91.87
2022-10-26T08:20:11.034Z,91.87
2022-10-26T08:22:38.949Z,91.91
2022-10-26T08:25:08.831Z,92.25
2022-10-26T08:27:36.796Z,91.38
2022-10-26T08:30:05.196Z,91.81
2022-10-26T08:32:33.068Z,91.92
2022-10-26T08:35:00.991Z,92.17
2022-10-26T08:37:29.209Z,92.34
2022-10-26T08:40:00.621Z,91.82
2022-10-26T08:42:37.607Z,91.95
2022-10-26T08:45:11.775Z,91.55
2022-10-26T08:47:48.630Z,90.03
2022-10-26T08:50:25.935Z,90.59
2022-10-26T08:53:02.236Z,90.68
2022-10-26T08:55:36.025Z,90.46
2022-10-26T08:58:11.966Z,89.31
2022-10-26T09:00:41.721Z,89.58
2022-10-26T09:03:15.769Z,88.78
2022-10-26T09:05:56.423Z,88.66
2022-10-26T09:08:36.805Z,89.08
2022-10-26T09:11:14.469Z,88.64
2022-10-26T09:13:56.404Z,88.91
2022-10-26T09:16:36.571Z,88.64
2022-10-26T09:19:29.506Z,88.14
2022-10-26T09:22:05.261Z,87.82
2022-10-26T09:24:34.815Z,87.87
2022-10-26T09:27:09.089Z,87.93
2022-10-26T09:29:42.446Z,87.62
2022-10-26T09:32:18.001Z,87.74
2022-10-26T09:34:50.958Z,87.70
2022-10-26T09:37:22.365Z,87.62
2022-10-26T09:39:59.530Z,88.13
2022-10-26T09:42:35.113Z,88.25
2022-10-26T09:45:13.841Z,87.41
2022-10-26T09:47:46.326Z,86.52
2022-10-26T09:50:23.696Z,87.56
2022-10-26T09:52:52.548Z,86.41
2022-10-26T09:55:22.597Z,86.86
2022-10-26T09:57:55.074Z,86.75
2022-10-26T10:00:26.710Z,86.18
2022-10-26T10:02:57.046Z,86.66
2022-10-26T10:05:49.866Z,86.51
2022-10-26T10:08:19.752Z,86.94
2022-10-26T10:10:59.534Z,87.19
2022-10-26T10:13:30.339Z,87.62
2022-10-26T10:16:06.560Z,86.79
2022-10-26T10:18:36.258Z,87.23
2022-10-26T10:21:05.839Z,86.65
2022-10-26T10:23:36.228Z,86.88
2022-10-26T10:26:07.139Z,85.35
2022-10-26T10:28:35.995Z,85.08
2022-10-26T10:31:07.118Z,84.03
2022-10-26T10:33:37.644Z,81.84
2022-10-26T10:36:09.396Z,80.57
2022-10-26T10:38:42.626Z,80.28
2022-10-26T10:41:23.236Z,80.32
2022-10-26T10:43:54.605Z,79.78
2022-10-26T10:46:27.367Z,79.76
2022-10-26T10:49:03.709Z,80.04
2022-10-26T10:51:37.317Z,79.61
2022-10-26T10:54:07.051Z,77.80
2022-10-26T10:56:39.425Z,77.77
2022-10-26T10:59:27.253Z,77.45
2022-10-26T11:02:13.559Z,77.31
2022-10-26T11:05:00.151Z,77.79
2022-10-26T11:07:31.341Z,78.18
2022-10-26T11:10:03.808Z,77.59
2022-10-26T11:15:14.369Z,78.51
2022-10-26T11:17:54.194Z,79.32
2022-10-26T11:20:25.189Z,78.16
2022-10-26T11:25:45.442Z,78.63
2022-10-26T11:28:18.766Z,78.61
2022-10-26T11:30:52.111Z,78.14
2022-10-26T11:33:28.063Z,77.21
2022-10-26T11:36:01.883Z,75.23
2022-10-26T11:38:45.983Z,75.65
2022-10-26T11:41:26.463Z,76.34
2022-10-26T11:44:02.694Z,75.31
2022-10-26T11:46:37.165Z,74.24
2022-10-26T11:49:14.375Z,74.59
2022-10-26T11:51:47.858Z,75.86
2022-10-26T11:56:56.999Z,75.30
2022-10-26T11:59:32.242Z,74.53
2022-10-26T12:02:05.746Z,75.38
2022-10-26T12:04:39.100Z,74.84
2022-10-26T12:07:14.690Z,75.37
2022-10-26T12:09:45.105Z,74.02
2022-10-26T12:12:24.051Z,75.29
2022-10-26T12:15:00.800Z,74.55
2022-10-26T12:17:36.284Z,75.05
2022-10-26T12:20:24.566Z,74.45
2022-10-26T12:22:52.808Z,74.03
2022-10-26T12:25:23.132Z,73.03
2022-10-26T12:27:56.146Z,71.38
2022-10-26T12:30:28.019Z,70.28
2022-10-26T12:32:57.853Z,71.11
2022-10-26T12:35:48.132Z,70.11
2022-10-26T12:38:57.779Z,71.16
2022-10-26T12:41:27.374Z,70.85
2022-10-26T12:44:00.161Z,71.40
2022-10-26T12:46:45.420Z,71.26
2022-10-26T12:49:43.178Z,71.52
2022-10-26T12:52:32.893Z,71.33
2022-10-26T12:55:30.388Z,71.49
2022-10-26T12:58:11.258Z,71.67
2022-10-26T13:00:48.467Z,71.33
2022-10-26T13:03:30.662Z,71.56
2022-10-26T13:06:12.536Z,71.46
2022-10-26T13:08:43.604Z,71.10
2022-10-26T13:11:19.693Z,71.32
2022-10-26T13:13:55.363Z,71.41
2022-10-26T13:16:27.917Z,71.20
2022-10-26T13:18:57.430Z,71.94
2022-10-26T13:21:27.094Z,71.42
2022-10-26T13:24:05.598Z,71.53
2022-10-26T13:26:54.292Z,72.98
2022-10-26T13:29:31.115Z,71.24
2022-10-26T13:32:00.432Z,69.65
2022-10-26T13:34:32.037Z,69.46
2022-10-26T13:37:08.039Z,69.31
2022-10-26T13:39:42.459Z,68.44
2022-10-26T13:42:16.855Z,68.44
2022-10-26T13:44:53.667Z,67.95
2022-10-26T13:47:28.835Z,68.99
2022-10-26T13:50:03.240Z,68.42
2022-10-26T13:52:36.843Z,68.87
2022-10-26T13:55:11.067Z,69.42
2022-10-26T13:57:43.265Z,69.56
2022-10-26T14:00:18.572Z,69.91
2022-10-26T14:02:46.647Z,69.82
2022-10-26T14:05:18.272Z,69.95
2022-10-26T14:07:52.583Z,69.36
2022-10-26T14:10:29.142Z,68.96
2022-10-26T14:12:58.261Z,68.75
2022-10-26T14:15:30.252Z,68.68
2022-10-26T14:18:01.067Z,67.55
2022-10-26T14:20:30.988Z,67.78
2022-10-26T14:22:59.083Z,67.62
2022-10-26T14:25:42.453Z,68.29
2022-10-26T14:28:27.522Z,69.07
2022-10-26T14:30:57.195Z,69.60
2022-10-26T14:33:29.510Z,69.98
2022-10-26T14:35:58.128Z,68.42
2022-10-26T14:38:30.137Z,67.47
2022-10-26T14:40:59.816Z,67.15
2022-10-26T14:43:28.716Z,67.70
2022-10-26T14:45:57.314Z,67.81
2022-10-26T14:48:30.298Z,67.25
2022-10-26T14:51:02.963Z,67.91
2022-10-26T14:53:36.569Z,67.76
2022-10-26T14:56:17.905Z,68.02
2022-10-26T14:58:46.361Z,68.30
2022-10-26T15:01:26.864Z,68.22
2022-10-26T15:03:58.214Z,68.18
2022-10-26T15:06:32.437Z,68.32
2022-10-26T15:09:02.100Z,68.70
2022-10-26T15:11:33.599Z,68.67
2022-10-26T15:14:02.384Z,68.71
2022-10-26T15:16:40.963Z,68.68
2022-10-26T15:19:11.404Z,68.12
2022-10-26T15:21:47.019Z,68.45
2022-10-26T15:24:33.147Z,68.58
2022-10-26T15:27:13.148Z,69.21
2022-10-26T15:29:43.747Z,69.04
2022-10-26T15:32:31.210Z,69.68
2022-10-26T15:35:32.704Z,70.06
2022-10-26T15:38:01.642Z,70.94
2022-10-26T15:40:32.212Z,72.20
2022-10-26T15:43:02.158Z,72.80
2022-10-26T15:45:35.134Z,73.96
2022-10-26T15:48:19.412Z,75.37
2022-10-26T15:50:47.525Z,75.06
2022-10-26T15:53:20.533Z,75.51
2022-10-26T15:55:48.923Z,76.24
2022-10-26T15:58:18.526Z,77.35
2022-10-26T16:00:46.584Z,77.76
2022-10-26T16:03:23.155Z,78.27
2022-10-26T16:05:57.684Z,79.81
2022-10-26T16:08:27.766Z,79.32
2022-10-26T16:10:56.018Z,80.43
2022-10-26T16:13:26.691Z,80.27
2022-10-26T16:15:54.674Z,80.42
2022-10-26T16:18:22.667Z,80.75
2022-10-26T16:20:50.563Z,81.70
2022-10-26T16:23:18.715Z,81.91
2022-10-26T16:25:47.816Z,82.07
2022-10-26T16:28:17.645Z,82.67
2022-10-26T16:30:46.935Z,82.58
2022-10-26T16:33:15.037Z,82.71
2022-10-26T16:35:43.076Z,83.04
2022-10-26T16:38:11.162Z,83.17
2022-10-26T16:40:42.598Z,83.78
2022-10-26T16:43:10.849Z,84.02
2022-10-26T16:45:40.940Z,84.45
2022-10-26T16:48:15.054Z,84.20
2022-10-26T16:50:42.955Z,84.69
2022-10-26T16:53:10.970Z,85.02
2022-10-26T16:55:39.256Z,84.64
2022-10-26T16:58:07.211Z,85.44
2022-10-26T17:00:36.579Z,86.45
2022-10-26T17:03:05.272Z,86.54
2022-10-26T17:05:34.515Z,86.57
2022-10-26T17:08:02.450Z,86.83
2022-10-26T17:10:30.589Z,86.80
2022-10-26T17:12:58.476Z,86.66
2022-10-26T17:15:29.143Z,86.83
2022-10-26T17:17:57.504Z,87.22
2022-10-26T17:20:26.076Z,87.26
2022-10-26T17:22:58.219Z,87.72
2022-10-26T17:25:26.413Z,87.75
2022-10-26T17:27:54.330Z,87.85
2022-10-26T17:30:23.041Z,87.71
2022-10-26T17:32:51.966Z,87.93
2022-10-26T17:35:20.160Z,88.22
2022-10-26T17:37:48.356Z,88.61
2022-10-26T17:40:18.068Z,88.15
2022-10-26T17:42:46.164Z,88.52
2022-10-26T17:45:14.099Z,88.97
2022-10-26T17:47:42.049Z,89.11
2022-10-26T17:50:10.475Z,89.00
2022-10-26T17:52:38.429Z,89.33
2022-10-26T17:55:07.131Z,89.18
2022-10-26T17:57:36.412Z,89.17
2022-10-26T18:00:06.411Z,89.10
2022-10-26T18:02:40.476Z,89.20
2022-10-26T18:05:09.837Z,89.33
2022-10-26T18:07:39.200Z,89.36
2022-10-26T18:10:26.230Z,89.71
2022-10-26T18:12:59.573Z,89.96
2022-10-26T18:15:27.925Z,89.75
2022-10-26T18:17:59.835Z,89.60
2022-10-26T18:20:28.758Z,90.03
2022-10-26T18:22:57.095Z,89.83
2022-10-26T18:25:25.212Z,89.74
2022-10-26T18:27:53.243Z,90.12
2022-10-26T18:30:22.896Z,90.75
2022-10-26T18:32:52.048Z,90.68
2022-10-26T18:35:20.494Z,90.69
2022-10-26T18:37:48.617Z,90.39
2022-10-26T18:40:17.157Z,90.36
2022-10-26T18:42:45.050Z,90.96
2022-10-26T18:45:13.134Z,90.68
2022-10-26T18:47:42.618Z,91.00
2022-10-26T18:50:11.139Z,90.73
2022-10-26T18:52:41.204Z,91.13
2022-10-26T18:55:10.701Z,91.40
2022-10-26T18:57:38.927Z,91.51
2022-10-26T19:00:09.378Z,91.49
2022-10-26T19:02:37.486Z,91.60
2022-10-26T19:05:08.935Z,91.79
2022-10-26T19:07:39.857Z,91.98
2022-10-26T19:10:10.997Z,91.97
2022-10-26T19:12:39.209Z,91.69
2022-10-26T19:15:08.574Z,92.12
2022-10-26T19:17:36.680Z,92.37
2022-10-26T19:20:07.336Z,91.73
2022-10-26T19:22:35.377Z,91.28
2022-10-26T19:25:03.850Z,91.26
2022-10-26T19:27:31.825Z,91.45
2022-10-26T19:30:00.117Z,91.53
2022-10-26T19:32:28.769Z,91.11
2022-10-26T19:34:56.725Z,91.43
2022-10-26T19:37:28.226Z,91.38
2022-10-26T19:39:56.701Z,91.16
2022-10-26T19:42:24.875Z,91.73
2022-10-26T19:44:52.950Z,91.67
2022-10-26T19:47:20.891Z,91.85
2022-10-26T19:49:49.292Z,91.29
2022-10-26T19:54:51.578Z,91.43
2022-10-26T19:57:19.518Z,91.06
2022-10-26T19:59:47.454Z,91.62
2022-10-26T20:02:15.655Z,92.49
2022-10-26T20:04:45.295Z,92.64
2022-10-26T20:07:13.345Z,92.31
2022-10-26T20:09:41.287Z,92.65
2022-10-26T20:12:12.687Z,92.98
2022-10-26T20:14:40.789Z,92.92
2022-10-26T20:17:08.705Z,92.99
2022-10-26T20:19:36.649Z,93.04
2022-10-26T20:22:04.528Z,92.33
2022-10-26T20:24:32.486Z,92.38
2022-10-26T20:27:00.380Z,92.60
2022-10-26T20:29:29.568Z,92.27
2022-10-26T20:31:59.243Z,92.41
2022-10-26T20:37:01.549Z,93.25
2022-10-26T20:39:30.492Z,93.01
2022-10-26T20:41:59.618Z,93.62
2022-10-26T20:44:34.425Z,93.75
2022-10-26T20:47:02.694Z,93.25
2022-10-26T20:49:31.203Z,93.09
2022-10-26T20:52:21.806Z,93.04
2022-10-26T20:54:56.467Z,92.57
2022-10-26T20:57:32.206Z,92.59
2022-10-26T21:00:07.461Z,92.74
2022-10-26T21:02:35.661Z,92.71
2022-10-26T21:05:03.580Z,93.09
2022-10-26T21:07:31.603Z,92.51
2022-10-26T21:09:59.514Z,92.51
2022-10-26T21:12:27.489Z,92.73
2022-10-26T21:14:55.881Z,92.02
2022-10-26T21:17:25.495Z,92.76
2022-10-26T21:19:53.402Z,92.56
2022-10-26T21:22:21.464Z,92.55
2022-10-26T21:24:49.389Z,92.39
2022-10-26T21:27:17.639Z,93.54
2022-10-26T21:29:45.635Z,92.89
2022-10-26T21:32:13.673Z,92.23
2022-10-26T21:34:42.885Z,93.10
2022-10-26T21:37:10.872Z,93.07
2022-10-26T21:39:38.720Z,94.17
2022-10-26T21:42:06.747Z,93.89
2022-10-26T21:44:42.066Z,93.16
2022-10-26T21:47:10.776Z,93.30
2022-10-26T21:49:38.844Z,92.85
2022-10-26T21:52:08.658Z,93.23
2022-10-26T21:54:36.573Z,92.68
2022-10-26T21:57:04.568Z,92.67
2022-10-26T21:59:32.483Z,93.65
2022-10-26T22:02:00.888Z,93.30
2022-10-26T22:04:28.930Z,93.28
2022-10-26T22:06:56.831Z,93.71
2022-10-26T22:09:26.263Z,93.41
2022-10-26T22:11:54.272Z,94.00
2022-10-26T22:14:22.517Z,94.18
2022-10-26T22:16:50.710Z,94.67
2022-10-26T22:19:18.974Z,94.89
2022-10-26T22:21:47.013Z,94.52
2022-10-26T22:24:14.992Z,94.41
2022-10-26T22:26:44.285Z,93.11
2022-10-26T22:29:12.251Z,93.91
2022-10-26T22:31:41.530Z,93.20
2022-10-26T22:34:14.388Z,92.95
2022-10-26T22:36:42.755Z,93.39
2022-10-26T22:39:10.794Z,93.39
2022-10-26T22:41:38.678Z,92.74
2022-10-26T22:44:08.197Z,92.85
2022-10-26T22:46:36.130Z,92.53
2022-10-26T22:49:04.582Z,92.57
2022-10-26T22:51:34.162Z,94.05
2022-10-26T22:54:03.586Z,93.89
2022-10-26T22:56:33.087Z,93.62
2022-10-26T22:59:01.396Z,92.68
2022-10-26T23:01:32.873Z,93.52
2022-10-26T23:04:01.498Z,93.27
2022-10-26T23:06:31.558Z,93.66
2022-10-26T23:08:59.996Z,92.92
2022-10-26T23:11:29.385Z,93.49
2022-10-26T23:13:59.501Z,92.93
2022-10-26T23:16:28.426Z,93.00
2022-10-26T23:18:58.723Z,93.37
2022-10-26T23:24:00.838Z,91.72
2022-10-26T23:26:28.830Z,91.98
2022-10-26T23:28:57.014Z,92.25
2022-10-26T23:31:26.770Z,92.75
2022-10-26T23:33:56.541Z,92.35
2022-10-26T23:36:26.404Z,92.16
2022-10-26T23:38:54.369Z,92.57
2022-10-26T23:41:23.446Z,92.73
2022-10-26T23:43:51.388Z,93.10
2022-10-26T23:46:19.424Z,93.34
2022-10-26T23:48:47.548Z,93.85
2022-10-26T23:51:15.469Z,94.04
2022-10-26T23:53:44.819Z,94.15
2022-10-26T23:56:12.770Z,93.58
2022-10-26T23:58:40.741Z,93.22
